Time;durP1;ratioP1;P1;durP2;ratioP2;P2;SDS_P1;SDS_P2;PMS_P1;PMS_P2;Temp;Humidity;BMP_temperature;BMP_pressure;BME280_temperature;BME280_humidity;BME280_pressure;Samples;Min_cycle;Max_cycle;Signal;HPM_P1;HPM_P2
2022/06/04 00:00:36;;;;;;;4.03;1.80;;;15.90;99.90;;;;;;5075427;27;39777;-75
2022/06/04 00:03:03;;;;;;;3.38;1.50;;;15.90;99.90;;;;;;5060007;28;39248;-75
2022/06/04 00:05:32;;;;;;;4.57;1.58;;;15.80;99.90;;;;;;5058545;28;39092;-74
2022/06/04 00:08:00;;;;;;;1.95;1.55;;;15.80;99.90;;;;;;5061186;28;38026;-75
2022/06/04 00:16:03;;;;;;;3.38;1.30;;;15.60;99.90;;;;;;5080204;27;39490;-74
2022/06/04 00:18:29;;;;;;;2.30;1.63;;;15.60;99.90;;;;;;5056306;28;37027;-75
2022/06/04 00:20:56;;;;;;;6.30;1.75;;;15.60;99.90;;;;;;5065360;28;39797;-74
2022/06/04 00:23:23;;;;;;;2.40;1.33;;;15.50;99.90;;;;;;5083032;28;39084;-74
2022/06/04 00:25:53;;;;;;;2.10;1.50;;;15.50;99.90;;;;;;5062865;28;39580;-74
2022/06/04 00:28:21;;;;;;;2.20;1.50;;;15.50;99.90;;;;;;5057919;28;39018;-75
2022/06/04 00:30:47;;;;;;;2.00;1.50;;;15.50;99.90;;;;;;5054310;28;39345;-74
2022/06/04 00:33:15;;;;;;;1.60;1.48;;;15.50;99.90;;;;;;5072852;28;38658;-74
2022/06/04 00:35:43;;;;;;;1.65;1.40;;;15.40;99.90;;;;;;5078744;28;39280;-74
2022/06/04 00:38:13;;;;;;;5.75;2.20;;;15.50;99.90;;;;;;5094992;27;38113;-74
2022/06/04 00:40:50;;;;;;;6.22;2.20;;;15.50;99.90;;;;;;5059739;28;38795;-74
2022/06/04 00:43:20;;;;;;;2.72;1.67;;;15.40;99.90;;;;;;5068625;27;39205;-74
2022/06/04 00:46:23;;;;;;;5.90;2.22;;;15.40;99.90;;;;;;5081957;27;39060;-74
2022/06/04 00:48:49;;;;;;;6.03;2.63;;;15.30;99.90;;;;;;5076363;27;46088;-74
2022/06/04 00:51:15;;;;;;;3.70;2.10;;;15.40;99.90;;;;;;5077106;27;38610;-75
2022/06/04 00:53:42;;;;;;;9.55;3.20;;;15.40;99.90;;;;;;5076308;28;39623;-74
2022/06/04 00:56:20;;;;;;;3.33;2.30;;;15.30;99.90;;;;;;5078076;27;39511;-75
2022/06/04 00:59:02;;;;;;;4.07;2.40;;;15.30;99.90;;;;;;5059277;27;37724;-74
2022/06/04 01:01:35;;;;;;;5.23;2.50;;;15.20;99.90;;;;;;5052097;28;38829;-75
2022/06/04 01:07:32;;;;;;;3.58;2.70;;;15.20;99.90;;;;;;5053423;28;38443;-74
2022/06/04 01:09:58;;;;;;;5.15;2.55;;;15.10;99.90;;;;;;5059140;28;37796;-75
2022/06/04 01:12:27;;;;;;;7.05;2.40;;;15.00;99.90;;;;;;5055167;27;39858;-74
2022/06/04 01:15:02;;;;;;;7.93;2.83;;;15.00;99.90;;;;;;5052072;28;39180;-72
2022/06/04 01:17:55;;;;;;;5.97;2.53;;;14.90;99.90;;;;;;5052884;28;47329;-72
2022/06/04 01:20:46;;;;;;;5.80;2.30;;;14.90;99.90;;;;;;5061168;27;37414;-73
2022/06/04 01:23:31;;;;;;;5.25;2.70;;;14.90;99.90;;;;;;5053949;28;39973;-73
2022/06/04 01:26:03;;;;;;;3.75;2.17;;;14.80;99.90;;;;;;5060530;27;38903;-72
2022/06/04 01:28:32;;;;;;;6.15;2.35;;;14.80;99.90;;;;;;5075364;27;48814;-73
2022/06/04 01:31:05;;;;;;;2.85;2.10;;;14.80;99.90;;;;;;5070877;27;37492;-72
2022/06/04 01:33:35;;;;;;;;;;;14.80;99.90;;;;;;5059767;27;47102;-73
2022/06/04 01:36:01;;;;;;;4.22;2.50;;;14.80;99.90;;;;;;5056801;28;37620;-73
2022/06/04 01:38:35;;;;;;;8.82;2.78;;;14.80;99.90;;;;;;5061335;27;38230;-73
2022/06/04 01:41:21;;;;;;;3.75;2.55;;;14.70;99.90;;;;;;5075925;27;37247;-73
2022/06/04 01:43:56;;;;;;;4.72;2.85;;;14.70;99.90;;;;;;5059439;27;39324;-73
2022/06/04 01:46:31;;;;;;;5.50;2.60;;;14.70;99.90;;;;;;5054439;28;39135;-72
2022/06/04 01:49:02;;;;;;;4.30;2.40;;;14.60;99.90;;;;;;5058755;28;38146;-73
2022/06/04 01:51:32;;;;;;;6.25;2.40;;;14.60;99.90;;;;;;5083316;27;48366;-73
2022/06/04 01:54:04;;;;;;;4.20;2.72;;;14.70;99.90;;;;;;5083993;28;39407;-72
2022/06/04 01:56:42;;;;;;;4.85;2.85;;;14.70;99.90;;;;;;5082674;27;48125;-73
2022/06/04 01:59:16;;;;;;;4.43;2.83;;;14.60;99.90;;;;;;5078942;27;37766;-72
2022/06/04 02:01:45;;;;;;;4.50;2.88;;;14.60;99.90;;;;;;5079517;28;38606;-74
2022/06/04 02:04:16;;;;;;;7.03;3.20;;;14.60;99.90;;;;;;5087102;27;39818;-73
2022/06/04 02:09:49;;;;;;;5.72;2.83;;;14.50;99.90;;;;;;5066396;27;49120;-72
2022/06/04 02:12:16;;;;;;;5.53;2.90;;;14.50;99.90;;;;;;5054531;27;36866;-73
2022/06/04 02:14:43;;;;;;;5.57;3.03;;;14.50;99.90;;;;;;5064895;27;38746;-72
2022/06/04 02:17:16;;;;;;;4.88;2.67;;;14.50;99.90;;;;;;5059522;27;38213;-73
2022/06/04 02:19:44;;;;;;;6.45;2.70;;;14.40;99.90;;;;;;5054936;28;38052;-73
2022/06/04 02:22:11;;;;;;;7.10;2.90;;;14.40;99.90;;;;;;5051931;27;37509;-73
2022/06/04 02:24:38;;;;;;;3.65;2.55;;;14.40;99.90;;;;;;5054690;27;39656;-73
2022/06/04 02:27:06;;;;;;;4.03;2.70;;;14.40;99.90;;;;;;5058055;28;38510;-73
2022/06/04 02:29:36;;;;;;;5.47;3.03;;;14.50;99.90;;;;;;5060994;28;39592;-72
2022/06/04 02:32:23;;;;;;;5.22;2.63;;;14.40;99.90;;;;;;5061890;28;38321;-73
2022/06/04 02:35:15;;;;;;;5.97;2.90;;;14.40;99.90;;;;;;5055628;28;39790;-72
2022/06/04 02:38:14;;;;;;;5.45;2.65;;;14.30;99.90;;;;;;5051740;27;47338;-73
2022/06/04 02:41:01;;;;;;;5.20;3.10;;;14.20;99.90;;;;;;5028014;28;47073;-72
2022/06/04 02:43:50;;;;;;;6.25;3.58;;;14.20;99.90;;;;;;5068103;27;48811;-72
2022/06/04 02:46:40;;;;;;;6.15;3.17;;;14.20;99.90;;;;;;5081395;27;38733;-73
2022/06/04 02:49:35;;;;;;;5.18;4.07;;;14.20;99.90;;;;;;5082741;27;38822;-73
2022/06/04 02:52:03;;;;;;;5.70;3.60;;;14.20;99.90;;;;;;5070472;27;40297;-73
2022/06/04 02:54:44;;;;;;;8.85;3.50;;;14.10;99.90;;;;;;5067917;28;38861;-72
2022/06/04 02:57:13;;;;;;;7.20;4.32;;;14.00;99.90;;;;;;5072113;27;38779;-73
2022/06/04 02:59:42;;;;;;;5.93;4.22;;;14.00;99.90;;;;;;5093521;27;40057;-73
2022/06/04 03:02:11;;;;;;;8.88;3.85;;;14.00;99.90;;;;;;5063483;27;38383;-72
2022/06/04 03:04:47;;;;;;;7.00;4.22;;;13.90;99.90;;;;;;5059192;27;37767;-72
2022/06/04 03:07:13;;;;;;;6.22;4.18;;;13.90;99.90;;;;;;5078106;27;38975;-73
2022/06/04 03:09:39;;;;;;;9.00;4.40;;;13.90;99.90;;;;;;5078805;28;38326;-73
2022/06/04 03:12:06;;;;;;;7.90;4.43;;;14.00;99.90;;;;;;5102414;27;38338;-72
2022/06/04 03:14:33;;;;;;;7.75;4.95;;;13.90;99.90;;;;;;5075299;27;38194;-72
2022/06/04 03:16:59;;;;;;;9.63;4.70;;;13.90;99.90;;;;;;5066697;28;39461;-72
2022/06/04 03:19:25;;;;;;;6.95;5.03;;;13.90;99.90;;;;;;5058925;28;38243;-72
2022/06/04 03:21:51;;;;;;;10.35;5.00;;;13.90;99.90;;;;;;5058666;28;39607;-72
2022/06/04 03:24:17;;;;;;;6.97;4.88;;;13.90;99.90;;;;;;5059179;27;37609;-72
2022/06/04 03:26:44;;;;;;;6.70;4.72;;;13.90;99.90;;;;;;5059374;28;36316;-73
2022/06/04 03:29:10;;;;;;;8.52;5.45;;;13.90;99.90;;;;;;5062298;27;38100;-73
2022/06/04 03:31:36;;;;;;;8.35;4.47;;;13.80;99.90;;;;;;5057004;27;39916;-72
2022/06/04 03:34:04;;;;;;;10.60;5.25;;;13.80;99.90;;;;;;5056084;27;38949;-72
2022/06/04 03:36:32;;;;;;;6.25;4.75;;;13.70;99.90;;;;;;5061465;28;37694;-72
2022/06/04 03:39:00;;;;;;;7.78;5.45;;;13.70;99.90;;;;;;5055232;28;38566;-72
2022/06/04 03:41:27;;;;;;;8.95;4.97;;;13.70;99.90;;;;;;5058960;27;47682;-72
2022/06/04 03:43:53;;;;;;;7.20;5.00;;;13.70;99.90;;;;;;5049693;28;35630;-72
2022/06/04 03:46:20;;;;;;;8.77;5.05;;;13.60;99.90;;;;;;5052802;28;40866;-72
2022/06/04 03:48:46;;;;;;;11.75;4.97;;;13.60;99.90;;;;;;5056932;27;40073;-72
2022/06/04 03:51:12;;;;;;;9.27;5.28;;;13.60;99.90;;;;;;5053201;27;38145;-72
2022/06/04 03:53:38;;;;;;;10.45;4.68;;;13.60;99.90;;;;;;5054587;27;37209;-71
2022/06/04 03:56:05;;;;;;;7.53;4.40;;;13.60;99.90;;;;;;5047269;27;40327;-71
2022/06/04 03:58:31;;;;;;;8.10;4.80;;;13.50;99.90;;;;;;5050182;28;37168;-73
2022/06/04 04:00:57;;;;;;;9.35;4.75;;;13.60;99.90;;;;;;5055376;28;36952;-71
2022/06/04 04:03:24;;;;;;;7.18;4.22;;;13.60;99.90;;;;;;5051684;27;37074;-72
2022/06/04 04:05:53;;;;;;;8.88;4.53;;;13.50;99.90;;;;;;5051490;27;39820;-71
2022/06/04 04:08:24;;;;;;;11.85;4.20;;;13.50;99.90;;;;;;5049983;27;37196;-72
2022/06/04 04:10:50;;;;;;;9.93;4.15;;;13.60;99.90;;;;;;5054710;27;38122;-71
2022/06/04 04:13:17;;;;;;;7.18;4.25;;;13.60;99.90;;;;;;5055958;27;38220;-72
2022/06/04 04:15:45;;;;;;;8.15;4.47;;;13.50;99.90;;;;;;5051431;27;38342;-72
2022/06/04 04:18:11;;;;;;;8.75;4.60;;;13.60;99.90;;;;;;5052850;27;39461;-71
2022/06/04 04:20:41;;;;;;;9.63;5.22;;;13.60;99.90;;;;;;5054656;28;38558;-72
2022/06/04 04:23:08;;;;;;;9.75;4.82;;;13.60;99.90;;;;;;5058191;27;37228;-72
2022/06/04 04:25:36;;;;;;;8.13;5.13;;;13.70;99.90;;;;;;5056481;28;38369;-72
2022/06/04 04:28:03;;;;;;;9.82;5.05;;;13.70;99.90;;;;;;5055530;28;39817;-72
2022/06/04 04:30:32;;;;;;;8.13;5.10;;;13.70;99.90;;;;;;5057953;28;47938;-72
2022/06/04 04:32:59;;;;;;;8.23;4.88;;;13.70;99.90;;;;;;5052444;28;38260;-71
2022/06/04 04:35:28;;;;;;;7.32;4.85;;;13.70;99.90;;;;;;5048995;27;39241;-72
2022/06/04 04:37:55;;;;;;;7.88;5.10;;;13.60;99.90;;;;;;5053357;28;39403;-72
2022/06/04 04:40:24;;;;;;;8.00;5.03;;;13.50;99.90;;;;;;5049791;27;39013;-72
2022/06/04 04:42:52;;;;;;;8.35;5.00;;;13.50;99.90;;;;;;5056250;27;20057;-72
2022/06/04 04:45:20;;;;;;;9.07;5.30;;;13.50;99.90;;;;;;5054446;27;39937;-72
2022/06/04 04:47:47;;;;;;;7.97;5.53;;;13.60;99.90;;;;;;5055342;28;40176;-72
2022/06/04 04:50:24;;;;;;;8.00;4.90;;;13.60;99.90;;;;;;5056422;27;39096;-72
2022/06/04 04:52:51;;;;;;;8.43;4.22;;;13.50;99.90;;;;;;5060044;27;37024;-72
2022/06/04 04:55:17;;;;;;;9.60;5.00;;;13.60;99.90;;;;;;5058246;27;39755;-72
2022/06/04 04:57:44;;;;;;;8.30;4.95;;;13.60;99.90;;;;;;5053703;28;38821;-72
2022/06/04 05:00:12;;;;;;;9.30;4.72;;;13.60;99.90;;;;;;5049073;28;38905;-71
2022/06/04 05:02:38;;;;;;;11.63;5.05;;;13.60;99.90;;;;;;5052442;27;36490;-72
2022/06/04 05:05:06;;;;;;;8.27;4.10;;;13.60;99.90;;;;;;5049637;28;39749;-72
2022/06/04 05:07:32;;;;;;;7.65;4.63;;;13.60;99.90;;;;;;5056114;27;38217;-72
2022/06/04 05:09:58;;;;;;;11.73;5.03;;;13.60;99.90;;;;;;5053506;28;38744;-72
2022/06/04 05:12:25;;;;;;;10.02;4.47;;;13.60;99.90;;;;;;5054899;27;39005;-72
2022/06/04 05:14:51;;;;;;;7.85;4.55;;;13.60;99.90;;;;;;5053552;27;38902;-70
2022/06/04 05:17:17;;;;;;;8.52;4.82;;;13.60;99.90;;;;;;5062290;27;39192;-72
2022/06/04 05:19:44;;;;;;;12.10;4.32;;;13.80;99.90;;;;;;5046805;28;38055;-72
2022/06/04 05:22:10;;;;;;;5.85;4.68;;;14.00;99.90;;;;;;5049070;28;35519;-72
2022/06/04 05:24:36;;;;;;;9.00;4.32;;;14.00;99.90;;;;;;5066526;28;37815;-72
2022/06/04 05:27:05;;;;;;;10.13;4.43;;;13.90;99.90;;;;;;5054780;27;38483;-73
2022/06/04 05:29:33;;;;;;;14.43;4.85;;;13.90;99.90;;;;;;5057861;28;38207;-72
2022/06/04 05:31:59;;;;;;;8.85;4.28;;;13.80;99.90;;;;;;5061785;27;37359;-72
2022/06/04 05:34:26;;;;;;;7.68;4.25;;;13.80;99.90;;;;;;5061724;27;38568;-72
2022/06/04 05:36:53;;;;;;;10.43;4.63;;;13.70;99.90;;;;;;5053781;27;39036;-72
2022/06/04 05:39:20;;;;;;;8.95;4.32;;;13.80;99.90;;;;;;5050313;28;37039;-72
2022/06/04 05:41:46;;;;;;;6.40;4.35;;;13.80;99.90;;;;;;5057218;28;36243;-72
2022/06/04 05:44:13;;;;;;;9.80;4.60;;;13.80;99.90;;;;;;5060617;27;38441;-72
2022/06/04 05:46:42;;;;;;;10.65;5.03;;;13.70;99.90;;;;;;5058887;28;38544;-72
2022/06/04 05:49:14;;;;;;;8.32;4.55;;;13.70;99.90;;;;;;5052096;27;36433;-72
2022/06/04 05:51:43;;;;;;;14.63;5.63;;;13.70;99.90;;;;;;5054229;28;38371;-72
2022/06/04 05:54:10;;;;;;;7.90;4.70;;;13.80;99.90;;;;;;5062170;27;39634;-72
2022/06/04 05:56:39;;;;;;;6.05;4.47;;;13.90;99.90;;;;;;5060030;27;38705;-72
2022/06/04 05:59:11;;;;;;;7.45;4.60;;;14.00;99.90;;;;;;5060486;27;37857;-72
2022/06/04 06:01:39;;;;;;;9.90;4.80;;;13.90;99.90;;;;;;5069502;28;38068;-72
2022/06/04 06:04:07;;;;;;;10.82;4.38;;;14.00;99.90;;;;;;5059246;27;37664;-72
2022/06/04 06:06:37;;;;;;;8.02;4.75;;;14.10;99.90;;;;;;5063865;28;37600;-72
2022/06/04 06:09:06;;;;;;;8.00;4.80;;;14.00;99.90;;;;;;5065313;27;37431;-73
2022/06/04 06:11:32;;;;;;;9.80;5.10;;;13.90;99.90;;;;;;5067293;28;37456;-73
2022/06/04 06:13:59;;;;;;;7.47;5.40;;;14.10;99.90;;;;;;5063646;28;39023;-73
2022/06/04 06:16:31;;;;;;;10.02;4.93;;;14.10;99.90;;;;;;5058913;28;37900;-74
2022/06/04 06:18:58;;;;;;;11.13;5.50;;;14.20;99.90;;;;;;5078494;27;39059;-73
2022/06/04 06:21:29;;;;;;;7.35;5.32;;;14.10;99.90;;;;;;5082710;27;36818;-73
2022/06/04 06:23:55;;;;;;;14.20;5.45;;;14.10;99.90;;;;;;5061536;28;39619;-73
2022/06/04 06:26:31;;;;;;;7.57;4.50;;;14.20;99.90;;;;;;5059218;28;37253;-73
2022/06/04 06:29:00;;;;;;;10.20;4.97;;;14.30;99.90;;;;;;5059527;28;38916;-73
2022/06/04 06:31:28;;;;;;;8.45;5.43;;;14.40;99.90;;;;;;5057089;27;37243;-73
2022/06/04 06:33:55;;;;;;;8.43;4.75;;;14.50;99.90;;;;;;5060289;28;40311;-73
2022/06/04 06:36:22;;;;;;;8.73;4.15;;;14.60;99.90;;;;;;5074172;27;38871;-74
2022/06/04 06:38:49;;;;;;;7.38;4.28;;;14.60;99.90;;;;;;5058894;28;37884;-74
2022/06/04 06:41:18;;;;;;;9.73;4.65;;;14.70;99.90;;;;;;5056926;28;37207;-73
2022/06/04 06:43:47;;;;;;;7.15;5.05;;;14.70;99.90;;;;;;5059697;27;40689;-74
2022/06/04 06:46:33;;;;;;;9.10;5.10;;;14.80;99.90;;;;;;5053363;28;37673;-73
2022/06/04 06:49:03;;;;;;;9.80;4.88;;;14.80;99.90;;;;;;5055396;27;37380;-73
2022/06/04 06:51:36;;;;;;;8.27;4.13;;;14.70;99.90;;;;;;5071238;27;47884;-73
2022/06/04 06:54:03;;;;;;;11.50;5.05;;;14.70;99.90;;;;;;5055271;27;39821;-74
2022/06/04 06:56:33;;;;;;;6.25;4.68;;;14.80;99.90;;;;;;5059102;28;38882;-73
2022/06/04 06:59:00;;;;;;;6.95;4.25;;;14.90;99.90;;;;;;5076144;27;39738;-74
2022/06/04 07:01:27;;;;;;;9.18;4.65;;;14.90;99.90;;;;;;5058354;27;37311;-74
2022/06/04 07:03:55;;;;;;;7.82;4.32;;;15.00;99.90;;;;;;5062124;27;38878;-73
2022/06/04 07:06:49;;;;;;;9.65;4.95;;;15.10;99.90;;;;;;5057333;28;37520;-74
2022/06/04 07:09:25;;;;;;;7.07;4.32;;;15.20;99.90;;;;;;5050026;27;41463;-74
2022/06/04 07:11:52;;;;;;;11.90;4.35;;;15.50;99.90;;;;;;5050754;28;38255;-73
2022/06/04 07:14:19;;;;;;;14.82;4.43;;;15.60;99.90;;;;;;5059361;27;37682;-74
2022/06/04 07:16:46;;;;;;;6.95;4.32;;;15.70;99.90;;;;;;5052983;28;38315;-74
2022/06/04 07:19:14;;;;;;;7.75;4.43;;;15.90;99.90;;;;;;5053076;27;39278;-74
2022/06/04 07:21:41;;;;;;;7.10;4.60;;;16.10;99.90;;;;;;5048722;28;37022;-76
2022/06/04 07:24:07;;;;;;;8.65;4.65;;;16.30;99.90;;;;;;5089001;27;39619;-76
2022/06/04 07:26:33;;;;;;;10.43;4.82;;;16.50;99.90;;;;;;5055620;28;37564;-76
2022/06/04 07:29:00;;;;;;;7.75;4.53;;;16.50;99.90;;;;;;5052709;28;38943;-73
2022/06/04 07:31:29;;;;;;;9.50;4.70;;;16.50;99.90;;;;;;5063582;27;36840;-74
2022/06/04 07:33:56;;;;;;;12.80;4.57;;;16.60;99.90;;;;;;5052805;28;40282;-76
2022/06/04 07:36:32;;;;;;;8.02;4.88;;;16.70;99.90;;;;;;5052377;28;38367;-74
2022/06/04 07:38:59;;;;;;;9.55;5.63;;;16.60;99.90;;;;;;5056706;27;38867;-76
2022/06/04 07:41:31;;;;;;;8.55;4.57;;;16.50;99.90;;;;;;5057106;28;38170;-75
2022/06/04 07:43:57;;;;;;;10.02;5.53;;;16.70;99.90;;;;;;5059733;28;37524;-74
2022/06/04 07:46:25;;;;;;;8.50;4.70;;;16.70;99.90;;;;;;5056092;28;38846;-76
2022/06/04 07:48:54;;;;;;;7.47;4.60;;;16.80;99.90;;;;;;5058307;27;39440;-74
2022/06/04 07:51:20;;;;;;;9.23;4.90;;;16.70;99.90;;;;;;5054099;27;38816;-76
2022/06/04 07:53:47;;;;;;;8.68;5.05;;;16.70;99.90;;;;;;5055062;27;39667;-76
2022/06/04 07:56:16;;;;;;;11.20;4.90;;;16.70;99.90;;;;;;5062343;27;38521;-75
2022/06/04 07:58:43;;;;;;;9.45;4.72;;;16.80;99.90;;;;;;5054449;28;38591;-76
2022/06/04 08:01:14;;;;;;;9.00;4.85;;;16.90;99.90;;;;;;5055963;28;37778;-76
2022/06/04 08:03:42;;;;;;;9.60;5.33;;;16.90;99.90;;;;;;5056440;27;39642;-75
2022/06/04 08:06:10;;;;;;;7.85;4.47;;;16.90;99.90;;;;;;5058740;28;36662;-77
2022/06/04 08:08:37;;;;;;;7.03;3.95;;;17.20;99.90;;;;;;5055339;27;38299;-75
2022/06/04 08:11:30;;;;;;;8.00;3.97;;;17.30;99.90;;;;;;5056745;28;36329;-75
2022/06/04 08:13:50;;;;;;;8.88;4.30;;;17.50;99.90;;;;;;5058205;27;37847;-75
2022/06/04 08:16:16;;;;;;;8.52;4.28;;;17.40;99.90;;;;;;5053353;28;39425;-76
2022/06/04 08:18:43;;;;;;;9.70;4.60;;;17.20;99.90;;;;;;5056104;28;39821;-76
2022/06/04 08:21:09;;;;;;;5.80;4.65;;;17.20;99.90;;;;;;5054347;27;37450;-74
2022/06/04 08:23:39;;;;;;;10.32;5.00;;;16.90;99.90;;;;;;5056372;27;37826;-75
2022/06/04 08:26:08;;;;;;;10.98;4.28;;;16.70;99.90;;;;;;5055378;28;39129;-76
2022/06/04 08:28:34;;;;;;;8.73;4.57;;;16.70;99.90;;;;;;5061312;28;38611;-77
2022/06/04 08:31:08;;;;;;;7.00;4.40;;;16.70;99.90;;;;;;5062961;28;36142;-73
2022/06/04 08:33:36;;;;;;;9.45;4.78;;;16.70;99.90;;;;;;5066745;27;47423;-76
2022/06/04 08:36:05;;;;;;;8.88;3.85;;;16.60;99.90;;;;;;5081728;27;37713;-76
2022/06/04 08:38:31;;;;;;;5.80;4.20;;;16.70;99.90;;;;;;5062693;28;38791;-76
2022/06/04 08:41:00;;;;;;;7.13;3.78;;;16.60;99.90;;;;;;5067447;28;37949;-76
2022/06/04 08:43:46;;;;;;;8.38;4.78;;;16.60;99.90;;;;;;5088454;27;39948;-77
2022/06/04 08:46:21;;;;;;;6.45;3.70;;;16.50;99.90;;;;;;5076078;27;38692;-76
2022/06/04 08:48:47;;;;;;;9.10;4.43;;;16.50;99.90;;;;;;5076069;27;38166;-76
2022/06/04 08:51:26;;;;;;;9.13;4.20;;;16.50;99.90;;;;;;5078701;27;36475;-76
2022/06/04 08:53:56;;;;;;;7.72;4.25;;;16.50;99.90;;;;;;5076298;27;38864;-76
2022/06/04 08:59:40;;;;;;;7.50;4.10;;;16.40;99.90;;;;;;5059655;27;38660;-76
2022/06/04 09:02:16;;;;;;;9.55;4.18;;;16.40;99.90;;;;;;5060380;28;37344;-75
2022/06/04 09:05:04;;;;;;;8.80;4.63;;;16.40;99.90;;;;;;5054331;28;38967;-76
2022/06/04 09:07:37;;;;;;;8.95;4.20;;;16.30;99.90;;;;;;5075744;27;48724;-76
2022/06/04 09:10:06;;;;;;;8.70;4.47;;;16.20;99.90;;;;;;5071647;27;38426;-76
2022/06/04 09:12:55;;;;;;;8.50;4.80;;;16.20;99.90;;;;;;5070358;28;36189;-77
2022/06/04 09:15:29;;;;;;;11.88;3.92;;;16.20;99.90;;;;;;5072373;28;37820;-76
2022/06/04 09:17:58;;;;;;;8.27;5.30;;;16.30;99.90;;;;;;5055860;27;37301;-76
2022/06/04 09:20:36;;;;;;;8.82;4.90;;;16.20;99.90;;;;;;5054779;28;38852;-77
2022/06/04 09:23:28;;;;;;;6.57;4.25;;;16.20;99.90;;;;;;5058343;28;36030;-76
2022/06/04 09:26:08;;;;;;;8.35;4.95;;;16.30;99.90;;;;;;5050386;28;39522;-76
2022/06/04 09:28:40;;;;;;;8.57;4.68;;;16.30;99.90;;;;;;5080184;27;48440;-76
2022/06/04 09:31:31;;;;;;;5.35;3.88;;;16.30;99.90;;;;;;5076200;27;38487;-76
2022/06/04 09:34:03;;;;;;;7.18;4.30;;;16.50;99.90;;;;;;5097952;27;36480;-76
2022/06/04 09:36:34;;;;;;;;;;;16.40;99.90;;;;;;5069743;27;49057;-75
2022/06/04 09:39:06;;;;;;;7.43;4.28;;;16.50;99.90;;;;;;5056868;27;38167;-76
2022/06/04 09:41:34;;;;;;;8.27;4.88;;;16.50;99.90;;;;;;5070361;28;46351;-75
2022/06/04 09:44:08;;;;;;;9.20;4.25;;;16.50;99.90;;;;;;5064029;27;38865;-76
2022/06/04 09:46:35;;;;;;;7.47;3.97;;;16.50;99.90;;;;;;5058514;28;47031;-76
2022/06/04 09:49:12;;;;;;;7.32;4.32;;;16.50;99.90;;;;;;5073513;27;40012;-76
2022/06/04 09:51:42;;;;;;;8.68;5.63;;;16.60;99.90;;;;;;5104547;27;39206;-76
2022/06/04 09:54:28;;;;;;;10.75;4.72;;;16.50;99.90;;;;;;5077848;27;38965;-76
2022/06/04 09:56:58;;;;;;;8.55;5.40;;;16.50;99.90;;;;;;5073831;27;38241;-76
2022/06/04 09:59:30;;;;;;;7.13;4.95;;;16.50;99.90;;;;;;5086094;27;39915;-76
2022/06/04 10:02:18;;;;;;;12.35;5.88;;;16.40;99.90;;;;;;5086359;27;38867;-76
2022/06/04 10:04:48;;;;;;;6.45;5.85;;;16.10;99.90;;;;;;5082439;28;47187;-77
2022/06/04 10:07:27;;;;;;;10.57;6.63;;;15.70;99.90;;;;;;5081715;27;39506;-76
2022/06/04 10:09:56;;;;;;;10.65;7.55;;;15.60;99.90;;;;;;5073406;28;39071;-77
2022/06/04 10:15:44;;;;;;;10.50;7.30;;;15.40;99.90;;;;;;5020352;28;49964;-77
2022/06/04 10:18:18;;;;;;;10.20;8.05;;;15.30;99.90;;;;;;5050150;27;38524;-76
2022/06/04 10:21:05;;;;;;;12.05;8.75;;;15.50;99.90;;;;;;5081902;27;39379;-76
2022/06/04 10:23:42;;;;;;;12.90;8.82;;;15.50;99.90;;;;;;5079339;27;47625;-76
2022/06/04 10:26:30;;;;;;;11.15;7.47;;;15.70;99.90;;;;;;5084864;28;38138;-76
2022/06/04 10:29:17;;;;;;;13.88;8.23;;;15.90;99.90;;;;;;5075889;27;39716;-76
2022/06/04 10:32:05;;;;;;;10.43;7.50;;;16.20;99.90;;;;;;5103459;27;46425;-76
2022/06/04 10:34:42;;;;;;;8.68;7.70;;;16.40;99.90;;;;;;5060994;28;48924;-76
2022/06/04 10:37:28;;;;;;;9.52;7.32;;;16.60;99.90;;;;;;5063311;27;38258;-76
2022/06/04 10:40:16;;;;;;;11.32;7.60;;;16.80;99.90;;;;;;5058264;28;39629;-76
2022/06/04 10:42:49;;;;;;;10.18;6.82;;;17.00;99.90;;;;;;5085565;27;47107;-76
2022/06/04 10:45:43;;;;;;;12.00;6.95;;;17.10;99.90;;;;;;5072675;27;37749;-76
2022/06/04 10:48:27;;;;;;;9.50;6.88;;;17.40;99.90;;;;;;5057579;27;38071;-75
2022/06/04 10:54:04;;;;;;;9.63;6.30;;;17.90;99.90;;;;;;5084575;27;48987;-75
2022/06/04 10:56:47;;;;;;;7.65;6.55;;;18.20;99.90;;;;;;5070446;27;48671;-75
2022/06/04 10:59:34;;;;;;;8.95;6.82;;;18.20;99.90;;;;;;5077610;27;37959;-75
2022/06/04 11:02:17;;;;;;;8.95;6.30;;;18.50;99.90;;;;;;5081655;28;39982;-75
2022/06/04 11:04:52;;;;;;;10.50;6.45;;;18.60;99.90;;;;;;5060500;27;48452;-76
2022/06/04 11:07:32;;;;;;;9.93;6.35;;;18.50;99.90;;;;;;5059220;28;37928;-75
2022/06/04 11:09:59;;;;;;;7.32;6.53;;;18.60;99.90;;;;;;5057730;28;37932;-75
2022/06/04 11:12:44;;;;;;;10.63;6.95;;;18.60;99.90;;;;;;5064745;28;38073;-75
2022/06/04 11:15:19;;;;;;;8.93;6.25;;;18.60;99.90;;;;;;5070125;28;37695;-75
2022/06/04 11:18:11;;;;;;;8.85;6.47;;;18.80;99.90;;;;;;5083548;27;38524;-75
2022/06/04 11:20:52;;;;;;;9.93;5.78;;;19.00;99.90;;;;;;5077062;27;47406;-74
2022/06/04 11:23:29;;;;;;;9.20;5.72;;;19.20;99.90;;;;;;5085762;27;37804;-74
2022/06/04 11:26:02;;;;;;;9.55;6.22;;;19.50;99.90;;;;;;5093725;27;37542;-74
2022/06/04 11:28:30;;;;;;;8.15;6.15;;;19.70;99.90;;;;;;5075709;27;48086;-73
2022/06/04 11:31:20;;;;;;;6.65;5.85;;;19.70;99.90;;;;;;5093884;27;39136;-74
2022/06/04 11:33:56;;;;;;;10.25;6.13;;;19.80;99.90;;;;;;5055448;27;48407;-74
2022/06/04 11:36:46;;;;;;;8.00;5.68;;;20.20;99.90;;;;;;5052467;28;38276;-75
2022/06/04 11:39:45;;;;;;;6.00;5.10;;;20.60;99.90;;;;;;5054486;28;38747;-74
2022/06/04 11:42:37;;;;;;;10.82;5.50;;;20.70;99.90;;;;;;5057241;28;36843;-75
2022/06/04 11:45:22;;;;;;;9.20;6.30;;;21.10;99.90;;;;;;5062802;27;37879;-74
2022/06/04 11:48:15;;;;;;;9.60;5.43;;;21.00;99.90;;;;;;5057975;28;37241;-74
2022/06/04 11:51:05;;;;;;;9.25;5.30;;;21.30;99.90;;;;;;5092979;27;47354;-74
2022/06/04 11:53:55;;;;;;;8.13;5.63;;;21.30;99.90;;;;;;5062825;27;48720;-76
2022/06/04 11:56:29;;;;;;;8.27;5.10;;;21.50;99.90;;;;;;5056323;28;40592;-75
2022/06/04 11:59:30;;;;;;;8.38;5.47;;;22.00;99.90;;;;;;5056602;28;38437;-75
2022/06/04 12:02:01;;;;;;;8.35;5.35;;;22.00;99.90;;;;;;5073605;27;49113;-75
2022/06/04 12:04:36;;;;;;;7.38;5.20;;;22.00;99.90;;;;;;5097293;27;47113;-75
2022/06/04 12:07:08;;;;;;;7.72;5.80;;;22.10;99.90;;;;;;5082667;28;39610;-77
2022/06/04 12:10:02;;;;;;;6.88;5.07;;;22.10;99.90;;;;;;5090239;27;39178;-76
2022/06/04 12:12:38;;;;;;;7.00;5.53;;;22.00;99.90;;;;;;5076806;27;38869;-76
2022/06/04 12:15:19;;;;;;;9.00;5.32;;;22.00;99.90;;;;;;5069398;27;38836;-75
2022/06/04 12:17:56;;;;;;;8.50;5.50;;;21.90;99.90;;;;;;5074246;27;39629;-75
2022/06/04 12:26:25;;;;;;;6.05;4.97;;;22.50;99.90;;;;;;5065993;27;38798;-75
2022/06/04 12:28:52;;;;;;;6.68;5.93;;;22.80;99.90;;;;;;5071205;28;40396;-76
2022/06/04 12:31:36;;;;;;;13.25;5.72;;;22.60;99.90;;;;;;5072892;28;41188;-76
2022/06/04 12:34:23;;;;;;;6.93;5.60;;;22.40;99.90;;;;;;5068376;27;39242;-76
2022/06/04 12:36:52;;;;;;;8.02;5.10;;;22.30;99.90;;;;;;5066932;28;39839;-75
2022/06/04 12:39:26;;;;;;;6.38;5.18;;;22.50;99.90;;;;;;5069894;28;38791;-76
2022/06/04 12:41:55;;;;;;;6.75;5.47;;;22.60;99.90;;;;;;5070105;28;39072;-76
2022/06/04 12:44:33;;;;;;;6.88;4.60;;;22.50;99.90;;;;;;5070865;28;37309;-75
2022/06/04 12:47:24;;;;;;;14.25;5.32;;;22.80;99.90;;;;;;5072084;28;36676;-75
2022/06/04 12:49:57;;;;;;;10.73;5.88;;;22.30;99.90;;;;;;5077007;28;48386;-75
2022/06/04 12:52:35;;;;;;;8.15;6.03;;;22.30;99.90;;;;;;5077536;28;39660;-78
2022/06/04 12:55:11;;;;;;;8.38;5.70;;;22.20;99.90;;;;;;5073225;27;38704;-76
2022/06/04 12:57:45;;;;;;;8.32;5.93;;;22.10;99.90;;;;;;5077415;27;39198;-75
2022/06/04 13:00:18;;;;;;;6.05;5.18;;;22.30;99.90;;;;;;5075913;28;36500;-75
2022/06/04 13:03:08;;;;;;;7.63;5.10;;;22.40;99.90;;;;;;5080284;27;41090;-75
2022/06/04 13:05:37;;;;;;;6.13;5.15;;;22.30;99.90;;;;;;5078794;28;47265;-75
2022/06/04 13:08:16;;;;;;;9.40;5.18;;;22.30;99.90;;;;;;5079500;27;38015;-75
2022/06/04 13:10:53;;;;;;;5.22;4.50;;;22.40;99.90;;;;;;5093635;27;37818;-76
2022/06/04 13:13:41;;;;;;;5.90;5.03;;;22.50;99.90;;;;;;5110671;27;39887;-76
2022/06/04 13:16:44;;;;;;;6.30;4.78;;;22.70;99.90;;;;;;5059221;28;38956;-77
2022/06/04 13:19:22;;;;;;;6.72;5.05;;;22.70;99.90;;;;;;5065216;27;38989;-75
2022/06/04 13:21:49;;;;;;;6.82;5.25;;;22.90;99.90;;;;;;5066834;27;39605;-76
2022/06/04 13:24:21;;;;;;;5.97;4.88;;;23.20;99.90;;;;;;5058668;27;39313;-75
2022/06/04 13:26:52;;;;;;;;;;;23.20;99.90;;;;;;5059438;27;38508;-76
2022/06/04 13:29:34;;;;;;;9.68;4.85;;;23.00;99.90;;;;;;5058293;27;38211;-76
2022/06/04 13:32:01;;;;;;;;;;;22.90;99.90;;;;;;5061712;27;39170;-75
2022/06/04 13:34:31;;;;;;;7.47;4.43;;;22.90;99.90;;;;;;5082047;27;48949;-75
2022/06/04 13:37:00;;;;;;;6.03;4.95;;;22.90;99.90;;;;;;5078943;28;39828;-76
2022/06/04 13:39:28;;;;;;;6.25;4.55;;;23.10;99.90;;;;;;5096058;27;47164;-76
2022/06/04 13:42:06;;;;;;;6.38;4.47;;;23.30;99.90;;;;;;5065631;28;39845;-76